FIN52A LEMG-EFHK
Flight info
| Callsign | FIN52A |
|---|---|
| Flight time | N/A |
| Altitude | 34000 |
| Route | BLN N865 VTB N867 DGO L176 LUSEM DCT LULUT DCT ADABI DCT BOKNO DCT DIBES DCT VIQAQ DCT TSU UN858 OQQAL DCT RANUX/N0447F350 DCT VALEK DCT LIPNI UN858 LIMGO DCT MASEK DCT FEDZA DCT MAG DCT LOLPA DCT BINKA N746 DEMUR DCT GORPI DCT ANFEV DCT DIPEB DCT NINTA DCT ADAXA DCT LATEG DCT LONSA Q33 INTOR |
| Aircraft | A321/M-SDE3FGHIRWY/LB1 |
Departure
| Time | N/A |
|---|---|
| Airport | Málaga-Costa del Sol Airport (LEMG) |
Arrival
| Time | 2026-05-03 22:03 |
|---|---|
| Airport | Helsinki Vantaa Airport (EFHK) |
| Time | Latitude | Longitude | Altitude | Speed | Heading |
|---|---|---|---|---|---|
| 2026-05-03 20:15 | 51.07723 | 10.36240 | 34958 ft | 473 kts | 45° |
| 2026-05-03 20:15 | 51.12444 | 10.43498 | 34963 ft | 473 kts | 42° |
| 2026-05-03 20:16 | 51.17218 | 10.50709 | 34963 ft | 473 kts | 43° |
| 2026-05-03 20:16 | 51.21973 | 10.57964 | 34959 ft | 473 kts | 43° |
| 2026-05-03 20:17 | 51.26715 | 10.65239 | 34962 ft | 473 kts | 43° |
| 2026-05-03 20:17 | 51.31457 | 10.72501 | 34964 ft | 472 kts | 43° |
| 2026-05-03 20:18 | 51.36193 | 10.79787 | 34974 ft | 472 kts | 43° |
| 2026-05-03 20:18 | 51.40919 | 10.87079 | 34962 ft | 472 kts | 43° |
| 2026-05-03 20:19 | 51.45635 | 10.94398 | 34956 ft | 472 kts | 43° |
| 2026-05-03 20:19 | 51.50344 | 11.01718 | 34953 ft | 471 kts | 43° |
| 2026-05-03 20:20 | 51.55045 | 11.09062 | 34940 ft | 471 kts | 43° |
| 2026-05-03 20:20 | 51.59741 | 11.16403 | 34946 ft | 472 kts | 43° |
| 2026-05-03 20:21 | 51.64406 | 11.23712 | 34935 ft | 470 kts | 43° |
| 2026-05-03 20:21 | 51.69084 | 11.31061 | 34941 ft | 470 kts | 43° |
| 2026-05-03 20:22 | 51.73759 | 11.38431 | 34935 ft | 470 kts | 43° |
| 2026-05-03 20:22 | 51.78422 | 11.45798 | 34943 ft | 470 kts | 43° |
| 2026-05-03 20:23 | 51.83071 | 11.53177 | 34930 ft | 469 kts | 43° |
| 2026-05-03 20:23 | 51.87724 | 11.60591 | 34930 ft | 468 kts | 43° |
| 2026-05-03 20:24 | 51.92363 | 11.68003 | 34931 ft | 469 kts | 43° |
| 2026-05-03 20:24 | 51.97004 | 11.75423 | 34930 ft | 469 kts | 43° |
| 2026-05-03 20:25 | 52.01591 | 11.82919 | 34930 ft | 469 kts | 45° |
| 2026-05-03 20:25 | 52.06136 | 11.90526 | 34930 ft | 468 kts | 44° |
| 2026-05-03 20:26 | 52.10672 | 11.98127 | 34930 ft | 469 kts | 45° |
| 2026-05-03 20:26 | 52.15206 | 12.05753 | 34930 ft | 469 kts | 45° |
| 2026-05-03 20:27 | 52.19739 | 12.13393 | 34930 ft | 469 kts | 45° |
| 2026-05-03 20:27 | 52.24249 | 12.21067 | 34931 ft | 469 kts | 45° |
| 2026-05-03 20:28 | 52.28758 | 12.28668 | 34923 ft | 469 kts | 45° |
| 2026-05-03 20:28 | 52.33274 | 12.36341 | 34913 ft | 468 kts | 45° |
| 2026-05-03 20:29 | 52.37784 | 12.44039 | 34911 ft | 469 kts | 45° |
| 2026-05-03 20:29 | 52.42290 | 12.51758 | 34903 ft | 469 kts | 45° |
| 2026-05-03 20:30 | 52.46790 | 12.59503 | 34902 ft | 470 kts | 45° |
| 2026-05-03 20:30 | 52.51290 | 12.67267 | 34901 ft | 469 kts | 45° |
| 2026-05-03 20:31 | 52.55786 | 12.75044 | 34901 ft | 469 kts | 45° |
| 2026-05-03 20:31 | 52.60272 | 12.82829 | 34900 ft | 469 kts | 45° |
| 2026-05-03 20:32 | 52.64757 | 12.90631 | 34901 ft | 468 kts | 45° |
| 2026-05-03 20:32 | 52.69226 | 12.98428 | 34901 ft | 468 kts | 45° |
| 2026-05-03 20:33 | 52.73689 | 13.06259 | 34900 ft | 468 kts | 45° |
| 2026-05-03 20:33 | 52.78147 | 13.14079 | 34900 ft | 468 kts | 46° |
| 2026-05-03 20:34 | 52.82600 | 13.21930 | 34901 ft | 468 kts | 45° |
| 2026-05-03 20:34 | 52.87050 | 13.29788 | 34897 ft | 468 kts | 45° |
| 2026-05-03 20:35 | 52.91490 | 13.37666 | 34891 ft | 468 kts | 46° |
| 2026-05-03 20:35 | 52.95919 | 13.45557 | 34891 ft | 468 kts | 46° |
| 2026-05-03 20:36 | 53.00347 | 13.53469 | 34889 ft | 468 kts | 46° |
| 2026-05-03 20:36 | 53.05045 | 13.60913 | 34887 ft | 466 kts | 33° |
| 2026-05-03 20:37 | 53.10628 | 13.66327 | 34892 ft | 464 kts | 26° |
| 2026-05-03 20:37 | 53.16255 | 13.71504 | 34891 ft | 465 kts | 27° |
| 2026-05-03 20:38 | 53.21905 | 13.76748 | 34880 ft | 465 kts | 27° |
| 2026-05-03 20:38 | 53.27552 | 13.81993 | 34881 ft | 465 kts | 27° |
| 2026-05-03 20:39 | 53.33210 | 13.87272 | 34879 ft | 465 kts | 27° |
| 2026-05-03 20:39 | 53.38868 | 13.92563 | 34880 ft | 466 kts | 27° |
| 2026-05-03 20:40 | 53.44529 | 13.97852 | 34883 ft | 466 kts | 27° |
| 2026-05-03 20:40 | 53.50187 | 14.03168 | 34880 ft | 465 kts | 27° |
| 2026-05-03 20:41 | 53.55825 | 14.08471 | 34880 ft | 464 kts | 27° |
| 2026-05-03 20:41 | 53.61465 | 14.13781 | 34880 ft | 465 kts | 27° |
| 2026-05-03 20:42 | 53.67098 | 14.19123 | 34880 ft | 465 kts | 27° |
| 2026-05-03 20:42 | 53.72718 | 14.24514 | 34880 ft | 465 kts | 28° |
| 2026-05-03 20:43 | 53.77695 | 14.31504 | 34880 ft | 469 kts | 49° |
| 2026-05-03 20:43 | 53.81640 | 14.40326 | 34880 ft | 470 kts | 53° |
| 2026-05-03 20:44 | 53.85513 | 14.49245 | 34880 ft | 470 kts | 52° |
| 2026-05-03 20:44 | 53.89414 | 14.58118 | 34879 ft | 470 kts | 52° |
| 2026-05-03 20:45 | 53.93314 | 14.67027 | 34879 ft | 470 kts | 52° |
| 2026-05-03 20:45 | 53.97199 | 14.75931 | 34882 ft | 469 kts | 52° |
| 2026-05-03 20:46 | 54.01077 | 14.84838 | 34879 ft | 469 kts | 52° |
| 2026-05-03 20:46 | 54.04958 | 14.93780 | 34880 ft | 472 kts | 51° |
| 2026-05-03 20:47 | 54.09609 | 15.01538 | 34879 ft | 467 kts | 31° |
| 2026-05-03 20:47 | 54.15364 | 15.06483 | 34884 ft | 463 kts | 21° |
| 2026-05-03 20:48 | 54.21268 | 15.10881 | 34880 ft | 463 kts | 21° |
| 2026-05-03 20:48 | 54.27120 | 15.15312 | 34881 ft | 463 kts | 21° |
| 2026-05-03 20:49 | 54.33002 | 15.19826 | 34880 ft | 463 kts | 21° |
| 2026-05-03 20:49 | 54.38889 | 15.24338 | 34878 ft | 463 kts | 21° |
| 2026-05-03 20:50 | 54.44764 | 15.28856 | 34879 ft | 463 kts | 21° |
| 2026-05-03 20:50 | 54.50678 | 15.33427 | 34881 ft | 462 kts | 21° |
| 2026-05-03 20:51 | 54.56547 | 15.37981 | 34880 ft | 463 kts | 21° |
| 2026-05-03 20:51 | 54.62371 | 15.42511 | 34879 ft | 463 kts | 21° |
| 2026-05-03 20:52 | 54.68241 | 15.47117 | 34880 ft | 464 kts | 21° |
| 2026-05-03 20:52 | 54.74117 | 15.51719 | 34880 ft | 464 kts | 21° |
| 2026-05-03 20:53 | 54.79995 | 15.56327 | 34880 ft | 464 kts | 21° |
| 2026-05-03 20:53 | 54.85878 | 15.60932 | 34929 ft | 463 kts | 21° |
| 2026-05-03 20:54 | 54.91624 | 15.66050 | 34896 ft | 469 kts | 32° |
| 2026-05-03 20:54 | 54.96432 | 15.73823 | 34886 ft | 474 kts | 44° |
| 2026-05-03 20:54 | 54.98717 | 15.77958 | 34884 ft | 474 kts | 44° |
| 2026-05-03 20:55 | 55.03317 | 15.86232 | 34878 ft | 476 kts | 43° |
| 2026-05-03 20:55 | 55.07932 | 15.94495 | 34882 ft | 475 kts | 43° |
| 2026-05-03 20:56 | 55.12538 | 16.02774 | 34881 ft | 476 kts | 43° |
| 2026-05-03 20:56 | 55.17137 | 16.11055 | 34882 ft | 474 kts | 43° |
| 2026-05-03 20:57 | 55.21722 | 16.19346 | 34881 ft | 474 kts | 43° |
| 2026-05-03 20:57 | 55.26306 | 16.27674 | 34879 ft | 475 kts | 43° |
| 2026-05-03 20:58 | 55.30110 | 16.34620 | 34883 ft | 475 kts | 43° |
| 2026-05-03 20:58 | 55.34679 | 16.43009 | 34889 ft | 475 kts | 43° |
| 2026-05-03 20:59 | 55.39256 | 16.51398 | 34890 ft | 476 kts | 43° |
| 2026-05-03 20:59 | 55.43836 | 16.59811 | 34891 ft | 476 kts | 43° |
| 2026-05-03 21:00 | 55.47662 | 16.66884 | 34890 ft | 476 kts | 43° |
| 2026-05-03 21:00 | 55.52960 | 16.76700 | 34889 ft | 475 kts | 43° |
| 2026-05-03 21:01 | 55.57503 | 16.85164 | 34890 ft | 474 kts | 44° |
| 2026-05-03 21:01 | 55.62046 | 16.93636 | 34889 ft | 475 kts | 43° |
| 2026-05-03 21:02 | 55.66581 | 17.02125 | 34890 ft | 474 kts | 44° |
| 2026-05-03 21:02 | 55.71106 | 17.10634 | 34890 ft | 474 kts | 44° |
| 2026-05-03 21:03 | 55.75627 | 17.19148 | 34884 ft | 474 kts | 44° |
| 2026-05-03 21:03 | 55.80185 | 17.27598 | 34883 ft | 473 kts | 42° |
| 2026-05-03 21:04 | 55.84795 | 17.35974 | 34880 ft | 474 kts | 42° |
| 2026-05-03 21:04 | 55.89398 | 17.44369 | 34883 ft | 474 kts | 42° |
| 2026-05-03 21:05 | 55.93991 | 17.52780 | 34883 ft | 473 kts | 42° |
| 2026-05-03 21:05 | 55.98590 | 17.61206 | 34881 ft | 475 kts | 42° |
| 2026-05-03 21:06 | 56.03185 | 17.69680 | 34880 ft | 475 kts | 42° |
| 2026-05-03 21:06 | 56.07787 | 17.78190 | 34881 ft | 476 kts | 42° |
| 2026-05-03 21:07 | 56.12383 | 17.86710 | 34879 ft | 474 kts | 43° |
| 2026-05-03 21:07 | 56.16788 | 17.95447 | 34874 ft | 475 kts | 52° |
| 2026-05-03 21:08 | 56.18469 | 18.00558 | 34871 ft | 478 kts | 64° |
| 2026-05-03 21:08 | 56.19602 | 18.06158 | 34879 ft | 479 kts | 73° |
| 2026-05-03 21:08 | 56.21306 | 18.17736 | 34883 ft | 480 kts | 75° |
| 2026-05-03 21:09 | 56.22971 | 18.29366 | 34878 ft | 480 kts | 77° |
| 2026-05-03 21:09 | 56.24329 | 18.41125 | 34881 ft | 481 kts | 78° |
| 2026-05-03 21:10 | 56.25665 | 18.52915 | 34879 ft | 482 kts | 78° |
| 2026-05-03 21:10 | 56.26993 | 18.64742 | 34880 ft | 483 kts | 78° |
| 2026-05-03 21:11 | 56.28317 | 18.76603 | 34885 ft | 484 kts | 78° |
| 2026-05-03 21:11 | 56.30079 | 18.88266 | 34876 ft | 482 kts | 64° |
| 2026-05-03 21:12 | 56.31699 | 18.93510 | 34880 ft | 478 kts | 52° |
| 2026-05-03 21:12 | 56.33772 | 18.98160 | 34884 ft | 476 kts | 45° |
| 2026-05-03 21:12 | 56.38180 | 19.07033 | 34881 ft | 476 kts | 45° |
| 2026-05-03 21:13 | 56.42575 | 19.15974 | 34880 ft | 476 kts | 45° |
| 2026-05-03 21:13 | 56.46948 | 19.24970 | 34881 ft | 476 kts | 45° |
| 2026-05-03 21:14 | 56.51295 | 19.33979 | 34882 ft | 475 kts | 45° |
| 2026-05-03 21:14 | 56.55641 | 19.43025 | 34877 ft | 475 kts | 45° |
| 2026-05-03 21:15 | 56.59976 | 19.52069 | 34870 ft | 475 kts | 45° |
| 2026-05-03 21:15 | 56.64317 | 19.61134 | 34871 ft | 476 kts | 45° |
| 2026-05-03 21:16 | 56.68655 | 19.70213 | 34870 ft | 476 kts | 46° |
| 2026-05-03 21:16 | 56.72987 | 19.79328 | 34870 ft | 476 kts | 45° |
| 2026-05-03 21:17 | 56.76588 | 19.86911 | 34871 ft | 477 kts | 45° |
| 2026-05-03 21:17 | 56.81638 | 19.97634 | 34869 ft | 476 kts | 46° |
| 2026-05-03 21:18 | 56.85960 | 20.06823 | 34870 ft | 476 kts | 45° |
| 2026-05-03 21:18 | 56.90275 | 20.16020 | 34869 ft | 477 kts | 46° |
| 2026-05-03 21:19 | 56.94579 | 20.25260 | 34861 ft | 477 kts | 46° |
| 2026-05-03 21:19 | 56.98877 | 20.34538 | 34860 ft | 478 kts | 46° |
| 2026-05-03 21:20 | 57.03183 | 20.43851 | 34860 ft | 479 kts | 46° |
| 2026-05-03 21:20 | 57.07490 | 20.53199 | 34861 ft | 479 kts | 46° |
| 2026-05-03 21:21 | 57.11788 | 20.62567 | 34860 ft | 479 kts | 46° |
| 2026-05-03 21:21 | 57.16080 | 20.71966 | 34860 ft | 479 kts | 46° |
| 2026-05-03 21:22 | 57.20366 | 20.81383 | 34859 ft | 479 kts | 46° |
| 2026-05-03 21:22 | 57.24614 | 20.90761 | 34852 ft | 480 kts | 46° |
| 2026-05-03 21:23 | 57.28886 | 21.00223 | 34851 ft | 480 kts | 46° |
| 2026-05-03 21:23 | 57.33153 | 21.09709 | 34850 ft | 479 kts | 46° |
| 2026-05-03 21:24 | 57.37412 | 21.19215 | 34851 ft | 480 kts | 46° |
| 2026-05-03 21:24 | 57.41659 | 21.28736 | 34851 ft | 480 kts | 46° |
| 2026-05-03 21:25 | 57.45905 | 21.38296 | 34851 ft | 480 kts | 46° |
| 2026-05-03 21:25 | 57.50142 | 21.47909 | 34850 ft | 481 kts | 46° |
| 2026-05-03 21:26 | 57.54370 | 21.57554 | 34850 ft | 480 kts | 46° |
| 2026-05-03 21:26 | 57.58597 | 21.67175 | 34850 ft | 481 kts | 46° |
| 2026-05-03 21:27 | 57.62829 | 21.76834 | 34851 ft | 481 kts | 46° |
| 2026-05-03 21:27 | 57.67049 | 21.86531 | 34850 ft | 482 kts | 46° |
| 2026-05-03 21:28 | 57.71241 | 21.96201 | 34850 ft | 482 kts | 46° |
| 2026-05-03 21:28 | 57.75463 | 22.05958 | 34850 ft | 482 kts | 45° |
| 2026-05-03 21:29 | 57.80317 | 22.14269 | 34852 ft | 468 kts | 28° |
| 2026-05-03 21:29 | 57.85712 | 22.21080 | 34850 ft | 468 kts | 27° |
| 2026-05-03 21:30 | 57.91108 | 22.27891 | 34850 ft | 467 kts | 28° |
| 2026-05-03 21:30 | 57.96493 | 22.34780 | 34850 ft | 468 kts | 28° |
| 2026-05-03 21:31 | 58.01878 | 22.41687 | 34851 ft | 468 kts | 28° |
| 2026-05-03 21:31 | 58.07267 | 22.48617 | 34850 ft | 469 kts | 28° |
| 2026-05-03 21:32 | 58.12660 | 22.55589 | 34850 ft | 470 kts | 28° |
| 2026-05-03 21:32 | 58.18054 | 22.62576 | 34850 ft | 470 kts | 28° |
| 2026-05-03 21:33 | 58.23416 | 22.69552 | 34849 ft | 470 kts | 28° |
| 2026-05-03 21:33 | 58.28805 | 22.76595 | 34851 ft | 470 kts | 28° |
| 2026-05-03 21:34 | 58.34184 | 22.83665 | 34851 ft | 471 kts | 28° |
| 2026-05-03 21:34 | 58.39579 | 22.90752 | 34850 ft | 471 kts | 28° |
| 2026-05-03 21:35 | 58.44962 | 22.97856 | 34850 ft | 471 kts | 28° |
| 2026-05-03 21:35 | 58.50337 | 23.04995 | 34850 ft | 470 kts | 28° |
| 2026-05-03 21:36 | 58.55701 | 23.12150 | 34850 ft | 471 kts | 28° |
| 2026-05-03 21:36 | 58.61077 | 23.19321 | 34851 ft | 471 kts | 28° |
| 2026-05-03 21:37 | 58.66446 | 23.26508 | 34850 ft | 471 kts | 28° |
| 2026-05-03 21:37 | 58.71804 | 23.33738 | 34851 ft | 471 kts | 28° |
| 2026-05-03 21:38 | 58.77165 | 23.41025 | 34851 ft | 472 kts | 28° |
| 2026-05-03 21:38 | 58.82535 | 23.48314 | 34850 ft | 472 kts | 28° |
| 2026-05-03 21:39 | 58.87901 | 23.55626 | 34850 ft | 472 kts | 28° |
| 2026-05-03 21:39 | 58.93271 | 23.62959 | 34850 ft | 473 kts | 28° |
| 2026-05-03 21:40 | 58.98631 | 23.70332 | 34792 ft | 472 kts | 28° |
| 2026-05-03 21:40 | 59.01267 | 23.73962 | 34444 ft | 473 kts | 28° |
| 2026-05-03 21:40 | 59.03994 | 23.77693 | 34173 ft | 473 kts | 28° |
| 2026-05-03 21:41 | 59.06649 | 23.81313 | 33920 ft | 474 kts | 28° |
| 2026-05-03 21:41 | 59.09245 | 23.85351 | 33663 ft | 482 kts | 36° |
| 2026-05-03 21:41 | 59.11690 | 23.89842 | 33419 ft | 484 kts | 37° |
| 2026-05-03 21:41 | 59.14129 | 23.94383 | 33169 ft | 486 kts | 37° |
| 2026-05-03 21:42 | 59.16561 | 23.98939 | 32919 ft | 486 kts | 37° |
| 2026-05-03 21:42 | 59.18999 | 24.03518 | 32668 ft | 487 kts | 37° |
| 2026-05-03 21:42 | 59.21438 | 24.08103 | 32221 ft | 486 kts | 37° |
| 2026-05-03 21:42 | 59.23877 | 24.12676 | 31585 ft | 486 kts | 37° |
| 2026-05-03 21:43 | 59.26319 | 24.17252 | 30914 ft | 487 kts | 37° |
| 2026-05-03 21:43 | 59.28763 | 24.21847 | 30243 ft | 488 kts | 37° |
| 2026-05-03 21:43 | 59.31206 | 24.26456 | 29617 ft | 487 kts | 37° |
| 2026-05-03 21:43 | 59.33646 | 24.31044 | 28975 ft | 486 kts | 37° |
| 2026-05-03 21:44 | 59.36082 | 24.35643 | 28255 ft | 486 kts | 37° |
| 2026-05-03 21:44 | 59.38525 | 24.40273 | 27355 ft | 489 kts | 38° |
| 2026-05-03 21:44 | 59.40963 | 24.44895 | 26689 ft | 485 kts | 38° |
| 2026-05-03 21:44 | 59.43366 | 24.49478 | 26083 ft | 480 kts | 38° |
| 2026-05-03 21:45 | 59.45761 | 24.54037 | 25497 ft | 475 kts | 38° |
| 2026-05-03 21:45 | 59.47354 | 24.57075 | 25110 ft | 472 kts | 38° |
| 2026-05-03 21:45 | 59.49693 | 24.61556 | 24525 ft | 467 kts | 38° |
| 2026-05-03 21:45 | 59.52014 | 24.66015 | 23922 ft | 463 kts | 38° |
| 2026-05-03 21:46 | 59.54254 | 24.70316 | 23351 ft | 460 kts | 39° |
| 2026-05-03 21:46 | 59.56562 | 24.74769 | 22763 ft | 456 kts | 39° |
| 2026-05-03 21:46 | 59.58791 | 24.79086 | 22200 ft | 452 kts | 39° |
| 2026-05-03 21:46 | 59.61055 | 24.83458 | 21623 ft | 447 kts | 38° |
| 2026-05-03 21:47 | 59.63355 | 24.87389 | 21028 ft | 440 kts | 33° |
| 2026-05-03 21:47 | 59.65719 | 24.91180 | 20456 ft | 435 kts | 33° |
| 2026-05-03 21:47 | 59.68064 | 24.94930 | 19893 ft | 431 kts | 33° |
| 2026-05-03 21:47 | 59.70378 | 24.98662 | 19312 ft | 427 kts | 34° |
| 2026-05-03 21:48 | 59.72672 | 25.02358 | 18737 ft | 423 kts | 34° |
| 2026-05-03 21:48 | 59.74940 | 25.06018 | 18162 ft | 419 kts | 34° |
| 2026-05-03 21:48 | 59.77193 | 25.09643 | 17592 ft | 415 kts | 34° |
| 2026-05-03 21:48 | 59.79428 | 25.13238 | 17023 ft | 411 kts | 34° |
| 2026-05-03 21:49 | 59.81628 | 25.16799 | 16435 ft | 406 kts | 33° |
| 2026-05-03 21:49 | 59.83983 | 25.19741 | 15838 ft | 394 kts | 20° |
| 2026-05-03 21:49 | 59.86475 | 25.21921 | 15272 ft | 388 kts | 17° |
| 2026-05-03 21:49 | 59.88958 | 25.23985 | 14672 ft | 385 kts | 17° |
| 2026-05-03 21:50 | 59.91416 | 25.26042 | 14171 ft | 379 kts | 17° |
| 2026-05-03 21:50 | 59.93805 | 25.28061 | 13915 ft | 367 kts | 17° |
| 2026-05-03 21:50 | 59.96105 | 25.30012 | 13655 ft | 351 kts | 16° |
| 2026-05-03 21:50 | 59.98373 | 25.31174 | 13262 ft | 324 kts | 355° |
| 2026-05-03 21:51 | 60.00508 | 25.30717 | 12953 ft | 300 kts | 340° |
| 2026-05-03 21:51 | 60.02505 | 25.29671 | 12454 ft | 295 kts | 338° |
| 2026-05-03 21:51 | 60.04483 | 25.28583 | 11871 ft | 295 kts | 338° |
| 2026-05-03 21:51 | 60.06459 | 25.27522 | 11306 ft | 294 kts | 339° |
| 2026-05-03 21:52 | 60.08444 | 25.26486 | 10732 ft | 293 kts | 340° |
| 2026-05-03 21:52 | 60.10412 | 25.25473 | 10146 ft | 291 kts | 340° |
| 2026-05-03 21:52 | 60.12362 | 25.24481 | 9673 ft | 287 kts | 341° |
| 2026-05-03 21:52 | 60.14297 | 25.23500 | 9231 ft | 288 kts | 341° |
| 2026-05-03 21:53 | 60.16242 | 25.22512 | 8817 ft | 289 kts | 342° |
| 2026-05-03 21:53 | 60.18193 | 25.21525 | 8410 ft | 288 kts | 342° |
| 2026-05-03 21:53 | 60.20133 | 25.20535 | 8001 ft | 287 kts | 342° |
| 2026-05-03 21:53 | 60.22062 | 25.19559 | 7591 ft | 285 kts | 342° |
| 2026-05-03 21:54 | 60.23983 | 25.18585 | 7183 ft | 284 kts | 342° |
| 2026-05-03 21:54 | 60.25861 | 25.17631 | 6865 ft | 279 kts | 342° |
| 2026-05-03 21:54 | 60.27706 | 25.16696 | 6663 ft | 268 kts | 342° |
| 2026-05-03 21:54 | 60.29475 | 25.15790 | 6497 ft | 256 kts | 342° |
| 2026-05-03 21:55 | 60.31161 | 25.14931 | 6338 ft | 245 kts | 342° |
| 2026-05-03 21:55 | 60.32800 | 25.14095 | 6005 ft | 241 kts | 342° |
| 2026-05-03 21:55 | 60.34416 | 25.13267 | 5574 ft | 239 kts | 342° |
| 2026-05-03 21:55 | 60.35987 | 25.12264 | 5138 ft | 235 kts | 333° |
| 2026-05-03 21:56 | 60.37445 | 25.10825 | 4706 ft | 233 kts | 330° |
| 2026-05-03 21:56 | 60.38878 | 25.09328 | 4348 ft | 231 kts | 330° |
| 2026-05-03 21:56 | 60.40302 | 25.07847 | 4032 ft | 228 kts | 331° |
| 2026-05-03 21:56 | 60.41690 | 25.06413 | 3834 ft | 220 kts | 332° |
| 2026-05-03 21:57 | 60.43045 | 25.05021 | 3548 ft | 217 kts | 333° |
| 2026-05-03 21:57 | 60.44391 | 25.03681 | 3217 ft | 215 kts | 333° |
| 2026-05-03 21:57 | 60.45716 | 25.02346 | 3006 ft | 208 kts | 333° |
| 2026-05-03 21:57 | 60.46994 | 25.01046 | 2821 ft | 203 kts | 333° |
| 2026-05-03 21:58 | 60.48159 | 24.99463 | 2835 ft | 204 kts | 311° |
| 2026-05-03 21:58 | 60.48742 | 24.96897 | 2731 ft | 204 kts | 275° |
| 2026-05-03 21:58 | 60.48488 | 24.94141 | 2572 ft | 194 kts | 245° |
| 2026-05-03 21:58 | 60.47835 | 24.91869 | 2426 ft | 183 kts | 241° |
| 2026-05-03 21:59 | 60.47215 | 24.89633 | 2130 ft | 182 kts | 242° |
| 2026-05-03 21:59 | 60.46526 | 24.87560 | 1981 ft | 171 kts | 233° |
| 2026-05-03 21:59 | 60.45992 | 24.85520 | 1956 ft | 163 kts | 239° |
| 2026-05-03 21:59 | 60.45065 | 24.84281 | 1962 ft | 167 kts | 187° |
| 2026-05-03 22:00 | 60.43944 | 24.84818 | 1996 ft | 168 kts | 153° |
| 2026-05-03 22:00 | 60.42932 | 24.86003 | 2004 ft | 168 kts | 149° |
| 2026-05-03 22:00 | 60.41924 | 24.87190 | 2034 ft | 168 kts | 151° |
| 2026-05-03 22:00 | 60.40896 | 24.88310 | 1920 ft | 165 kts | 152° |
| 2026-05-03 22:01 | 60.39934 | 24.89337 | 1706 ft | 148 kts | 153° |
| 2026-05-03 22:01 | 60.39023 | 24.90283 | 1511 ft | 147 kts | 153° |
| 2026-05-03 22:01 | 60.38116 | 24.91219 | 1323 ft | 146 kts | 153° |
| 2026-05-03 22:01 | 60.37211 | 24.92150 | 1135 ft | 145 kts | 154° |
| 2026-05-03 22:02 | 60.36313 | 24.93072 | 942 ft | 145 kts | 153° |
| 2026-05-03 22:02 | 60.35415 | 24.93996 | 747 ft | 144 kts | 153° |
| 2026-05-03 22:02 | 60.34520 | 24.94915 | 563 ft | 144 kts | 153° |
| 2026-05-03 22:02 | 60.33638 | 24.95820 | 369 ft | 143 kts | 153° |
| 2026-05-03 22:03 | 60.32755 | 24.96727 | 202 ft | 142 kts | 153° |
| 2026-05-03 22:03 | 60.31949 | 24.97553 | 159 ft | 112 kts | 152° |
| 2026-05-03 22:03 | 60.31433 | 24.98087 | 161 ft | 58 kts | 153° |
| 2026-05-03 22:03 | 60.31342 | 24.98182 | 163 ft | 5 kts | 153° |
| 2026-05-03 22:04 | 60.31280 | 24.98245 | 164 ft | 15 kts | 153° |
| 2026-05-03 22:04 | 60.31170 | 24.98355 | 163 ft | 20 kts | 154° |
| 2026-05-03 22:04 | 60.31033 | 24.98435 | 161 ft | 22 kts | 204° |
| 2026-05-03 22:04 | 60.30973 | 24.98232 | 163 ft | 10 kts | 295° |
| 2026-05-03 22:05 | 60.31049 | 24.98139 | 163 ft | 16 kts | 339° |
| 2026-05-03 22:05 | 60.31163 | 24.98029 | 164 ft | 21 kts | 334° |
| 2026-05-03 22:05 | 60.31296 | 24.97889 | 163 ft | 23 kts | 333° |
| 2026-05-03 22:05 | 60.31441 | 24.97745 | 161 ft | 9 kts | 333° |
| 2026-05-03 22:06 | 60.31505 | 24.97677 | 161 ft | 12 kts | 332° |
| 2026-05-03 22:06 | 60.31527 | 24.97533 | 165 ft | 12 kts | 282° |
| 2026-05-03 22:06 | 60.31591 | 24.97439 | 169 ft | 12 kts | 336° |
| 2026-05-03 22:06 | 60.31668 | 24.97361 | 171 ft | 12 kts | 333° |
| 2026-05-03 22:07 | 60.31682 | 24.97346 | 171 ft | 0 kts | 333° |
| 2026-05-03 22:08 | 60.31683 | 24.97345 | 171 ft | 1 kts | 333° |
| 2026-05-03 22:08 | 60.31704 | 24.97325 | 171 ft | 5 kts | 335° |
| 2026-05-03 22:08 | 60.31748 | 24.97282 | 171 ft | 9 kts | 334° |
| 2026-05-03 22:09 | 60.31763 | 24.97262 | 171 ft | 4 kts | 312° |
| 2026-05-03 22:09 | 60.31762 | 24.97181 | 172 ft | 7 kts | 264° |
| 2026-05-03 22:09 | 60.31751 | 24.97129 | 172 ft | 1 kts | 242° |
| 2026-05-03 22:10 | 60.31750 | 24.97125 | 172 ft | 0 kts | 242° |